sensor_id;sensor_type;location;lat;lon;timestamp;pressure;altitude;pressure_sealevel;temperature;humidity
6433;BME280;3249;42.690;23.260;2023-02-28T00:00:21;94782.84;;;7.30;100.00
6433;BME280;3249;42.690;23.260;2023-02-28T00:02:50;94777.09;;;7.07;100.00
6433;BME280;3249;42.690;23.260;2023-02-28T00:05:23;94764.88;;;7.24;100.00
6433;BME280;3249;42.690;23.260;2023-02-28T00:07:52;94776.34;;;7.28;100.00
6433;BME280;3249;42.690;23.260;2023-02-28T00:10:23;94779.19;;;7.18;100.00
6433;BME280;3249;42.690;23.260;2023-02-28T00:12:56;94775.81;;;7.18;100.00
6433;BME280;3249;42.690;23.260;2023-02-28T00:15:27;94784.84;;;7.14;100.00
6433;BME280;3249;42.690;23.260;2023-02-28T00:17:56;94789.78;;;7.15;100.00
6433;BME280;3249;42.690;23.260;2023-02-28T00:20:26;94800.78;;;7.09;100.00
6433;BME280;3249;42.690;23.260;2023-02-28T00:22:55;94797.66;;;7.14;100.00
6433;BME280;3249;42.690;23.260;2023-02-28T00:25:25;94800.59;;;6.75;100.00
6433;BME280;3249;42.690;23.260;2023-02-28T00:27:57;94799.47;;;6.63;100.00
6433;BME280;3249;42.690;23.260;2023-02-28T00:30:26;94801.25;;;6.48;100.00
6433;BME280;3249;42.690;23.260;2023-02-28T00:32:55;94804.13;;;6.74;100.00
6433;BME280;3249;42.690;23.260;2023-02-28T00:35:25;94801.47;;;6.82;100.00
6433;BME280;3249;42.690;23.260;2023-02-28T00:37:54;94794.72;;;6.81;100.00
6433;BME280;3249;42.690;23.260;2023-02-28T00:40:23;94807.25;;;6.91;100.00
6433;BME280;3249;42.690;23.260;2023-02-28T00:42:52;94800.16;;;6.57;100.00
6433;BME280;3249;42.690;23.260;2023-02-28T00:45:24;94797.28;;;6.31;100.00
6433;BME280;3249;42.690;23.260;2023-02-28T00:47:53;94799.06;;;6.02;100.00
6433;BME280;3249;42.690;23.260;2023-02-28T00:50:22;94761.41;;;5.81;100.00
6433;BME280;3249;42.690;23.260;2023-02-28T00:52:51;94805.81;;;5.95;100.00
6433;BME280;3249;42.690;23.260;2023-02-28T00:55:20;94804.41;;;5.92;100.00
6433;BME280;3249;42.690;23.260;2023-02-28T00:57:48;94791.81;;;6.05;100.00
6433;BME280;3249;42.690;23.260;2023-02-28T01:00:18;94794.13;;;6.00;100.00
6433;BME280;3249;42.690;23.260;2023-02-28T01:02:52;94791.38;;;5.87;100.00
6433;BME280;3249;42.690;23.260;2023-02-28T01:05:22;94795.09;;;5.99;100.00
6433;BME280;3249;42.690;23.260;2023-02-28T01:07:50;94781.97;;;6.02;100.00
6433;BME280;3249;42.690;23.260;2023-02-28T01:10:19;94791.66;;;6.07;100.00
6433;BME280;3249;42.690;23.260;2023-02-28T01:12:49;94783.47;;;5.82;100.00
6433;BME280;3249;42.690;23.260;2023-02-28T01:15:18;94794.53;;;5.89;100.00
6433;BME280;3249;42.690;23.260;2023-02-28T01:17:46;94787.97;;;5.72;100.00
6433;BME280;3249;42.690;23.260;2023-02-28T01:20:18;94793.31;;;5.85;100.00
6433;BME280;3249;42.690;23.260;2023-02-28T01:22:47;94785.50;;;5.64;100.00
6433;BME280;3249;42.690;23.260;2023-02-28T01:25:16;94789.81;;;5.64;100.00
6433;BME280;3249;42.690;23.260;2023-02-28T01:27:45;94767.63;;;5.64;100.00
6433;BME280;3249;42.690;23.260;2023-02-28T01:30:14;94791.03;;;5.53;100.00
6433;BME280;3249;42.690;23.260;2023-02-28T01:32:46;94785.53;;;5.42;100.00
6433;BME280;3249;42.690;23.260;2023-02-28T01:35:20;94787.47;;;5.40;100.00
6433;BME280;3249;42.690;23.260;2023-02-28T01:37:49;94782.69;;;5.59;100.00
6433;BME280;3249;42.690;23.260;2023-02-28T01:40:18;94791.13;;;5.74;100.00
6433;BME280;3249;42.690;23.260;2023-02-28T01:42:47;94799.25;;;5.78;100.00
6433;BME280;3249;42.690;23.260;2023-02-28T01:45:22;94801.94;;;5.84;100.00
6433;BME280;3249;42.690;23.260;2023-02-28T01:47:56;94790.91;;;5.84;100.00
6433;BME280;3249;42.690;23.260;2023-02-28T01:50:32;94791.31;;;5.36;100.00
6433;BME280;3249;42.690;23.260;2023-02-28T01:53:06;94781.78;;;5.15;100.00
6433;BME280;3249;42.690;23.260;2023-02-28T01:55:36;94795.13;;;5.17;100.00
6433;BME280;3249;42.690;23.260;2023-02-28T01:58:06;94800.97;;;5.48;100.00
6433;BME280;3249;42.690;23.260;2023-02-28T02:00:36;94801.09;;;5.69;100.00
6433;BME280;3249;42.690;23.260;2023-02-28T02:03:09;94794.28;;;5.84;100.00
6433;BME280;3249;42.690;23.260;2023-02-28T02:05:42;94791.28;;;5.58;100.00
6433;BME280;3249;42.690;23.260;2023-02-28T02:08:17;94789.69;;;5.57;100.00
6433;BME280;3249;42.690;23.260;2023-02-28T02:10:49;94779.09;;;5.68;100.00
6433;BME280;3249;42.690;23.260;2023-02-28T02:13:28;94773.41;;;5.81;100.00
6433;BME280;3249;42.690;23.260;2023-02-28T02:16:06;94779.09;;;5.68;100.00
6433;BME280;3249;42.690;23.260;2023-02-28T02:18:43;94794.09;;;5.86;100.00
6433;BME280;3249;42.690;23.260;2023-02-28T02:21:47;94791.44;;;5.79;100.00
6433;BME280;3249;42.690;23.260;2023-02-28T02:24:42;94787.31;;;5.56;100.00
6433;BME280;3249;42.690;23.260;2023-02-28T02:27:23;94790.47;;;5.80;100.00
6433;BME280;3249;42.690;23.260;2023-02-28T02:30:26;94790.16;;;5.83;100.00
6433;BME280;3249;42.690;23.260;2023-02-28T02:36:18;94793.69;;;6.11;100.00
6433;BME280;3249;42.690;23.260;2023-02-28T02:38:53;94789.19;;;6.13;100.00
6433;BME280;3249;42.690;23.260;2023-02-28T02:41:33;94793.78;;;6.03;100.00
6433;BME280;3249;42.690;23.260;2023-02-28T02:44:10;94784.16;;;6.05;100.00
6433;BME280;3249;42.690;23.260;2023-02-28T02:46:42;94786.63;;;6.13;100.00
6433;BME280;3249;42.690;23.260;2023-02-28T02:49:15;94796.66;;;6.29;100.00
6433;BME280;3249;42.690;23.260;2023-02-28T02:51:49;94760.63;;;6.10;100.00
6433;BME280;3249;42.690;23.260;2023-02-28T02:54:23;94781.16;;;6.16;100.00
6433;BME280;3249;42.690;23.260;2023-02-28T02:56:56;94781.25;;;6.08;100.00
6433;BME280;3249;42.690;23.260;2023-02-28T02:59:26;94797.03;;;6.26;100.00
6433;BME280;3249;42.690;23.260;2023-02-28T03:02:00;94795.69;;;6.16;100.00
6433;BME280;3249;42.690;23.260;2023-02-28T03:04:40;94777.91;;;5.93;100.00
6433;BME280;3249;42.690;23.260;2023-02-28T03:07:13;94798.00;;;6.25;100.00
6433;BME280;3249;42.690;23.260;2023-02-28T03:09:50;94813.53;;;6.38;100.00
6433;BME280;3249;42.690;23.260;2023-02-28T03:12:20;94793.75;;;6.32;100.00
6433;BME280;3249;42.690;23.260;2023-02-28T03:14:56;94817.69;;;5.88;100.00
6433;BME280;3249;42.690;23.260;2023-02-28T03:17:41;94804.06;;;5.95;100.00
6433;BME280;3249;42.690;23.260;2023-02-28T03:20:18;94830.69;;;5.86;100.00
6433;BME280;3249;42.690;23.260;2023-02-28T03:23:03;94828.22;;;6.07;100.00
6433;BME280;3249;42.690;23.260;2023-02-28T03:25:42;94837.19;;;5.89;100.00
6433;BME280;3249;42.690;23.260;2023-02-28T03:28:17;94839.16;;;6.16;100.00
6433;BME280;3249;42.690;23.260;2023-02-28T03:30:50;94828.06;;;6.23;100.00
6433;BME280;3249;42.690;23.260;2023-02-28T03:33:22;94833.16;;;6.09;100.00
6433;BME280;3249;42.690;23.260;2023-02-28T03:35:55;94827.69;;;5.97;100.00
6433;BME280;3249;42.690;23.260;2023-02-28T03:38:31;94839.66;;;5.82;100.00
6433;BME280;3249;42.690;23.260;2023-02-28T03:41:06;94842.38;;;5.81;100.00
6433;BME280;3249;42.690;23.260;2023-02-28T03:43:40;94840.44;;;5.60;100.00
6433;BME280;3249;42.690;23.260;2023-02-28T03:46:13;94843.06;;;5.52;100.00
6433;BME280;3249;42.690;23.260;2023-02-28T03:48:45;94846.09;;;5.70;100.00
6433;BME280;3249;42.690;23.260;2023-02-28T03:51:19;94849.00;;;5.67;100.00
6433;BME280;3249;42.690;23.260;2023-02-28T03:53:55;94850.06;;;5.73;100.00
6433;BME280;3249;42.690;23.260;2023-02-28T03:56:30;94851.28;;;5.85;100.00
6433;BME280;3249;42.690;23.260;2023-02-28T03:59:04;94833.09;;;5.57;100.00
6433;BME280;3249;42.690;23.260;2023-02-28T04:01:36;94854.31;;;5.80;100.00
6433;BME280;3249;42.690;23.260;2023-02-28T04:04:07;94847.72;;;5.49;100.00
6433;BME280;3249;42.690;23.260;2023-02-28T04:06:42;94850.69;;;5.75;100.00
6433;BME280;3249;42.690;23.260;2023-02-28T04:09:14;94853.47;;;5.88;100.00
6433;BME280;3249;42.690;23.260;2023-02-28T04:11:44;94837.38;;;5.87;100.00
6433;BME280;3249;42.690;23.260;2023-02-28T04:14:14;94853.78;;;6.07;100.00
6433;BME280;3249;42.690;23.260;2023-02-28T04:16:44;94826.53;;;6.00;100.00
6433;BME280;3249;42.690;23.260;2023-02-28T04:19:13;94849.19;;;5.80;100.00
6433;BME280;3249;42.690;23.260;2023-02-28T04:21:45;94855.16;;;5.81;100.00
6433;BME280;3249;42.690;23.260;2023-02-28T04:24:18;94848.94;;;6.12;100.00
6433;BME280;3249;42.690;23.260;2023-02-28T04:26:49;94844.41;;;6.00;100.00
6433;BME280;3249;42.690;23.260;2023-02-28T04:29:20;94852.53;;;5.89;100.00
6433;BME280;3249;42.690;23.260;2023-02-28T04:31:49;94846.00;;;5.86;100.00
6433;BME280;3249;42.690;23.260;2023-02-28T04:34:19;94846.97;;;5.77;100.00
6433;BME280;3249;42.690;23.260;2023-02-28T04:36:49;94845.59;;;5.52;100.00
6433;BME280;3249;42.690;23.260;2023-02-28T04:39:23;94850.78;;;5.22;100.00
6433;BME280;3249;42.690;23.260;2023-02-28T04:41:52;94856.53;;;5.16;100.00
6433;BME280;3249;42.690;23.260;2023-02-28T04:44:22;94852.25;;;5.16;100.00
6433;BME280;3249;42.690;23.260;2023-02-28T04:46:51;94858.25;;;5.23;100.00
6433;BME280;3249;42.690;23.260;2023-02-28T04:49:19;94866.28;;;5.12;100.00
6433;BME280;3249;42.690;23.260;2023-02-28T04:51:48;94867.53;;;5.16;100.00
6433;BME280;3249;42.690;23.260;2023-02-28T04:54:18;94875.16;;;5.24;100.00
6433;BME280;3249;42.690;23.260;2023-02-28T04:56:50;94879.81;;;5.43;100.00
6433;BME280;3249;42.690;23.260;2023-02-28T04:59:19;94884.00;;;5.59;100.00
6433;BME280;3249;42.690;23.260;2023-02-28T05:01:48;94881.91;;;5.40;100.00
6433;BME280;3249;42.690;23.260;2023-02-28T05:04:17;94862.56;;;5.23;100.00
6433;BME280;3249;42.690;23.260;2023-02-28T05:06:46;94881.69;;;5.49;100.00
6433;BME280;3249;42.690;23.260;2023-02-28T05:09:15;94878.25;;;5.34;100.00
6433;BME280;3249;42.690;23.260;2023-02-28T05:11:44;94867.34;;;5.26;100.00
6433;BME280;3249;42.690;23.260;2023-02-28T05:14:15;94877.03;;;5.53;100.00
6433;BME280;3249;42.690;23.260;2023-02-28T05:16:44;94886.16;;;5.70;100.00
6433;BME280;3249;42.690;23.260;2023-02-28T05:19:13;94884.34;;;5.78;100.00
6433;BME280;3249;42.690;23.260;2023-02-28T05:21:49;94886.44;;;5.97;100.00
6433;BME280;3249;42.690;23.260;2023-02-28T05:24:19;94886.53;;;6.04;100.00
6433;BME280;3249;42.690;23.260;2023-02-28T05:26:50;94891.78;;;6.10;100.00
6433;BME280;3249;42.690;23.260;2023-02-28T05:29:22;94901.03;;;6.11;100.00
6433;BME280;3249;42.690;23.260;2023-02-28T05:31:51;94899.72;;;6.15;100.00
6433;BME280;3249;42.690;23.260;2023-02-28T05:34:20;94907.50;;;5.99;100.00
6433;BME280;3249;42.690;23.260;2023-02-28T05:36:49;94900.31;;;6.17;100.00
6433;BME280;3249;42.690;23.260;2023-02-28T05:39:18;94894.75;;;5.99;100.00
6433;BME280;3249;42.690;23.260;2023-02-28T05:41:47;94918.31;;;5.87;100.00
6433;BME280;3249;42.690;23.260;2023-02-28T05:44:16;94916.66;;;5.94;100.00
6433;BME280;3249;42.690;23.260;2023-02-28T05:46:47;94916.59;;;5.79;100.00
6433;BME280;3249;42.690;23.260;2023-02-28T05:49:16;94911.16;;;6.05;100.00
6433;BME280;3249;42.690;23.260;2023-02-28T05:51:45;94918.94;;;6.26;100.00
6433;BME280;3249;42.690;23.260;2023-02-28T05:54:14;94916.97;;;6.28;100.00
6433;BME280;3249;42.690;23.260;2023-02-28T05:56:44;94912.34;;;6.31;100.00
6433;BME280;3249;42.690;23.260;2023-02-28T05:59:13;94924.31;;;6.45;100.00
6433;BME280;3249;42.690;23.260;2023-02-28T06:01:43;94923.22;;;6.48;100.00
6433;BME280;3249;42.690;23.260;2023-02-28T06:04:18;94923.72;;;6.43;100.00
6433;BME280;3249;42.690;23.260;2023-02-28T06:06:48;94922.47;;;6.39;100.00
6433;BME280;3249;42.690;23.260;2023-02-28T06:09:18;94924.03;;;6.11;100.00
6433;BME280;3249;42.690;23.260;2023-02-28T06:11:46;94919.63;;;6.20;100.00
6433;BME280;3249;42.690;23.260;2023-02-28T06:14:17;94915.66;;;6.32;100.00
6433;BME280;3249;42.690;23.260;2023-02-28T06:16:46;94922.06;;;6.50;100.00
6433;BME280;3249;42.690;23.260;2023-02-28T06:19:18;94915.53;;;6.62;100.00
6433;BME280;3249;42.690;23.260;2023-02-28T06:21:49;94919.84;;;6.76;100.00
6433;BME280;3249;42.690;23.260;2023-02-28T06:24:18;94923.63;;;6.80;100.00
6433;BME280;3249;42.690;23.260;2023-02-28T06:26:47;94921.06;;;6.80;100.00
6433;BME280;3249;42.690;23.260;2023-02-28T06:29:16;94916.81;;;7.02;100.00
6433;BME280;3249;42.690;23.260;2023-02-28T06:31:46;94934.03;;;6.79;100.00
6433;BME280;3249;42.690;23.260;2023-02-28T06:34:18;94930.59;;;6.43;100.00
6433;BME280;3249;42.690;23.260;2023-02-28T06:36:47;94933.53;;;6.54;100.00
6433;BME280;3249;42.690;23.260;2023-02-28T06:39:19;94912.50;;;6.44;100.00
6433;BME280;3249;42.690;23.260;2023-02-28T06:41:48;94949.78;;;6.76;100.00
6433;BME280;3249;42.690;23.260;2023-02-28T06:44:18;94945.06;;;6.94;100.00
6433;BME280;3249;42.690;23.260;2023-02-28T06:46:47;94937.22;;;6.95;100.00
6433;BME280;3249;42.690;23.260;2023-02-28T06:49:19;94949.22;;;7.24;100.00
6433;BME280;3249;42.690;23.260;2023-02-28T06:51:48;94944.94;;;7.31;100.00
6433;BME280;3249;42.690;23.260;2023-02-28T06:54:17;94944.00;;;7.03;100.00
6433;BME280;3249;42.690;23.260;2023-02-28T06:56:46;94940.22;;;7.13;100.00
6433;BME280;3249;42.690;23.260;2023-02-28T06:59:15;94949.97;;;7.24;100.00
6433;BME280;3249;42.690;23.260;2023-02-28T07:01:44;94952.81;;;7.29;100.00
6433;BME280;3249;42.690;23.260;2023-02-28T07:04:13;94936.66;;;7.29;100.00
6433;BME280;3249;42.690;23.260;2023-02-28T07:06:45;94945.53;;;7.47;100.00
6433;BME280;3249;42.690;23.260;2023-02-28T07:09:14;94939.50;;;7.19;100.00
6433;BME280;3249;42.690;23.260;2023-02-28T07:11:44;94948.78;;;7.06;100.00
6433;BME280;3249;42.690;23.260;2023-02-28T07:14:13;94950.56;;;7.05;100.00
6433;BME280;3249;42.690;23.260;2023-02-28T07:16:42;94951.50;;;7.33;100.00
6433;BME280;3249;42.690;23.260;2023-02-28T07:19:11;94943.91;;;7.11;100.00
6433;BME280;3249;42.690;23.260;2023-02-28T07:21:41;94947.81;;;7.21;100.00
6433;BME280;3249;42.690;23.260;2023-02-28T07:24:13;94956.13;;;7.44;100.00
6433;BME280;3249;42.690;23.260;2023-02-28T07:26:43;94928.44;;;7.19;100.00
6433;BME280;3249;42.690;23.260;2023-02-28T07:29:12;94959.19;;;7.33;100.00
6433;BME280;3249;42.690;23.260;2023-02-28T07:31:41;94953.47;;;7.02;100.00
6433;BME280;3249;42.690;23.260;2023-02-28T07:34:10;94939.13;;;7.22;100.00
6433;BME280;3249;42.690;23.260;2023-02-28T07:36:39;94954.03;;;7.19;100.00
6433;BME280;3249;42.690;23.260;2023-02-28T07:39:08;94949.28;;;7.01;100.00
6433;BME280;3249;42.690;23.260;2023-02-28T07:41:40;94940.91;;;7.07;100.00
6433;BME280;3249;42.690;23.260;2023-02-28T07:44:12;94959.41;;;7.38;100.00
6433;BME280;3249;42.690;23.260;2023-02-28T07:46:41;94949.78;;;7.40;100.00
6433;BME280;3249;42.690;23.260;2023-02-28T07:49:10;94957.53;;;7.47;100.00
6433;BME280;3249;42.690;23.260;2023-02-28T07:51:39;94953.22;;;7.47;100.00
6433;BME280;3249;42.690;23.260;2023-02-28T07:54:07;94953.09;;;7.55;100.00
6433;BME280;3249;42.690;23.260;2023-02-28T07:56:36;94949.59;;;7.42;100.00
6433;BME280;3249;42.690;23.260;2023-02-28T07:59:08;94942.69;;;6.92;100.00
6433;BME280;3249;42.690;23.260;2023-02-28T08:01:37;94946.03;;;7.07;100.00
6433;BME280;3249;42.690;23.260;2023-02-28T08:04:10;94942.31;;;7.24;100.00
6433;BME280;3249;42.690;23.260;2023-02-28T08:06:39;94949.50;;;7.50;100.00
6433;BME280;3249;42.690;23.260;2023-02-28T08:09:08;94941.75;;;7.64;100.00
6433;BME280;3249;42.690;23.260;2023-02-28T08:11:37;94942.75;;;7.84;100.00
6433;BME280;3249;42.690;23.260;2023-02-28T08:14:09;94945.81;;;7.94;100.00
6433;BME280;3249;42.690;23.260;2023-02-28T08:16:38;94953.25;;;8.10;100.00
6433;BME280;3249;42.690;23.260;2023-02-28T08:19:08;94955.06;;;8.16;100.00
6433;BME280;3249;42.690;23.260;2023-02-28T08:21:37;94959.97;;;8.32;100.00
6433;BME280;3249;42.690;23.260;2023-02-28T08:24:07;94957.41;;;8.32;100.00
6433;BME280;3249;42.690;23.260;2023-02-28T08:26:36;94940.66;;;8.15;100.00
6433;BME280;3249;42.690;23.260;2023-02-28T08:29:04;94975.25;;;8.40;100.00
6433;BME280;3249;42.690;23.260;2023-02-28T08:31:36;94966.44;;;8.49;100.00
6433;BME280;3249;42.690;23.260;2023-02-28T08:34:06;94971.59;;;8.56;100.00
6433;BME280;3249;42.690;23.260;2023-02-28T08:36:35;94972.41;;;8.56;100.00
6433;BME280;3249;42.690;23.260;2023-02-28T08:39:05;94962.91;;;8.57;100.00
6433;BME280;3249;42.690;23.260;2023-02-28T08:41:34;94961.53;;;8.54;100.00
6433;BME280;3249;42.690;23.260;2023-02-28T08:44:04;94967.88;;;8.58;100.00
6433;BME280;3249;42.690;23.260;2023-02-28T08:46:32;94962.59;;;8.39;100.00
6433;BME280;3249;42.690;23.260;2023-02-28T08:49:04;94971.13;;;8.46;100.00
6433;BME280;3249;42.690;23.260;2023-02-28T08:51:33;94968.78;;;8.44;100.00
6433;BME280;3249;42.690;23.260;2023-02-28T08:54:02;94957.88;;;8.42;100.00
6433;BME280;3249;42.690;23.260;2023-02-28T08:56:31;94965.03;;;8.47;100.00
6433;BME280;3249;42.690;23.260;2023-02-28T08:59:00;94971.56;;;8.49;100.00
6433;BME280;3249;42.690;23.260;2023-02-28T09:01:29;94976.69;;;8.49;100.00
6433;BME280;3249;42.690;23.260;2023-02-28T09:03:58;94966.78;;;8.46;100.00
6433;BME280;3249;42.690;23.260;2023-02-28T09:06:31;94969.28;;;8.33;100.00
6433;BME280;3249;42.690;23.260;2023-02-28T09:09:00;94963.06;;;8.21;100.00
6433;BME280;3249;42.690;23.260;2023-02-28T09:11:32;94965.94;;;8.39;100.00
6433;BME280;3249;42.690;23.260;2023-02-28T09:14:01;94962.50;;;8.53;100.00
6433;BME280;3249;42.690;23.260;2023-02-28T09:16:31;94965.53;;;8.63;100.00
6433;BME280;3249;42.690;23.260;2023-02-28T09:19:00;94966.38;;;8.70;100.00
6433;BME280;3249;42.690;23.260;2023-02-28T09:21:32;94960.09;;;8.79;100.00
6433;BME280;3249;42.690;23.260;2023-02-28T09:24:01;94962.97;;;8.91;100.00
6433;BME280;3249;42.690;23.260;2023-02-28T09:26:30;94964.50;;;8.85;100.00
6433;BME280;3249;42.690;23.260;2023-02-28T09:28:59;94961.66;;;9.08;100.00
6433;BME280;3249;42.690;23.260;2023-02-28T09:31:29;94970.22;;;9.21;100.00
6433;BME280;3249;42.690;23.260;2023-02-28T09:33:59;94962.16;;;9.24;100.00
6433;BME280;3249;42.690;23.260;2023-02-28T09:36:28;94970.59;;;9.18;100.00
6433;BME280;3249;42.690;23.260;2023-02-28T09:39:05;94961.16;;;9.25;100.00
6433;BME280;3249;42.690;23.260;2023-02-28T09:41:38;94966.13;;;9.33;100.00
6433;BME280;3249;42.690;23.260;2023-02-28T09:44:19;94963.75;;;9.32;100.00
6433;BME280;3249;42.690;23.260;2023-02-28T09:46:54;94956.22;;;9.30;100.00
6433;BME280;3249;42.690;23.260;2023-02-28T09:49:32;94957.47;;;9.47;100.00
6433;BME280;3249;42.690;23.260;2023-02-28T09:52:26;94959.34;;;9.73;100.00
6433;BME280;3249;42.690;23.260;2023-02-28T09:55:33;94958.03;;;9.97;100.00
6433;BME280;3249;42.690;23.260;2023-02-28T09:58:26;94942.41;;;9.98;100.00
6433;BME280;3249;42.690;23.260;2023-02-28T10:01:01;94947.97;;;10.21;100.00
6433;BME280;3249;42.690;23.260;2023-02-28T10:03:36;94952.94;;;10.42;100.00
6433;BME280;3249;42.690;23.260;2023-02-28T10:06:12;94937.09;;;10.26;100.00
6433;BME280;3249;42.690;23.260;2023-02-28T10:08:50;94944.63;;;10.34;100.00
6433;BME280;3249;42.690;23.260;2023-02-28T10:11:24;94938.03;;;9.92;100.00
6433;BME280;3249;42.690;23.260;2023-02-28T10:13:56;94927.38;;;10.02;100.00
6433;BME280;3249;42.690;23.260;2023-02-28T10:16:34;94927.22;;;10.36;100.00
6433;BME280;3249;42.690;23.260;2023-02-28T10:19:09;94939.84;;;10.76;100.00
6433;BME280;3249;42.690;23.260;2023-02-28T10:21:45;94935.44;;;11.09;100.00
6433;BME280;3249;42.690;23.260;2023-02-28T10:24:20;94936.91;;;11.36;100.00
6433;BME280;3249;42.690;23.260;2023-02-28T10:26:55;94930.88;;;11.55;100.00
6433;BME280;3249;42.690;23.260;2023-02-28T10:29:26;94926.09;;;11.65;100.00
6433;BME280;3249;42.690;23.260;2023-02-28T10:31:59;94924.78;;;11.87;100.00
6433;BME280;3249;42.690;23.260;2023-02-28T10:34:30;94927.50;;;11.99;100.00
6433;BME280;3249;42.690;23.260;2023-02-28T10:36:59;94916.41;;;12.23;100.00
6433;BME280;3249;42.690;23.260;2023-02-28T10:39:35;94895.09;;;12.34;100.00
6433;BME280;3249;42.690;23.260;2023-02-28T10:42:23;94904.88;;;12.50;100.00
6433;BME280;3249;42.690;23.260;2023-02-28T10:45:10;94890.34;;;12.31;100.00
6433;BME280;3249;42.690;23.260;2023-02-28T10:47:49;94892.94;;;12.00;100.00
6433;BME280;3249;42.690;23.260;2023-02-28T10:50:33;94893.88;;;12.36;100.00
6433;BME280;3249;42.690;23.260;2023-02-28T10:53:25;94879.81;;;12.32;100.00
6433;BME280;3249;42.690;23.260;2023-02-28T10:56:02;94882.53;;;12.13;100.00
6433;BME280;3249;42.690;23.260;2023-02-28T10:58:54;94877.22;;;12.08;100.00
6433;BME280;3249;42.690;23.260;2023-02-28T11:01:27;94836.63;;;11.59;100.00
6433;BME280;3249;42.690;23.260;2023-02-28T11:04:04;94872.91;;;11.71;100.00
6433;BME280;3249;42.690;23.260;2023-02-28T11:06:48;94848.44;;;11.80;100.00
6433;BME280;3249;42.690;23.260;2023-02-28T11:09:28;94852.31;;;11.58;100.00
6433;BME280;3249;42.690;23.260;2023-02-28T11:11:58;94845.09;;;11.73;100.00
6433;BME280;3249;42.690;23.260;2023-02-28T11:14:36;94838.63;;;11.64;100.00
6433;BME280;3249;42.690;23.260;2023-02-28T11:17:21;94860.13;;;11.82;100.00
6433;BME280;3249;42.690;23.260;2023-02-28T11:19:52;94856.28;;;11.67;100.00
6433;BME280;3249;42.690;23.260;2023-02-28T11:22:25;94855.84;;;11.70;100.00
6433;BME280;3249;42.690;23.260;2023-02-28T11:24:59;94814.81;;;11.62;100.00
6433;BME280;3249;42.690;23.260;2023-02-28T11:27:45;94850.63;;;11.45;100.00
6433;BME280;3249;42.690;23.260;2023-02-28T11:30:33;94847.16;;;11.58;100.00
6433;BME280;3249;42.690;23.260;2023-02-28T11:33:21;94830.44;;;11.36;100.00
6433;BME280;3249;42.690;23.260;2023-02-28T11:35:51;94832.88;;;11.62;100.00
6433;BME280;3249;42.690;23.260;2023-02-28T11:38:26;94838.66;;;11.57;100.00
6433;BME280;3249;42.690;23.260;2023-02-28T11:41:05;94837.38;;;11.73;100.00
6433;BME280;3249;42.690;23.260;2023-02-28T11:43:51;94833.13;;;11.85;100.00
6433;BME280;3249;42.690;23.260;2023-02-28T11:46:30;94836.72;;;11.84;100.00
6433;BME280;3249;42.690;23.260;2023-02-28T11:49:12;94840.03;;;11.91;100.00
6433;BME280;3249;42.690;23.260;2023-02-28T11:51:47;94838.41;;;11.96;100.00
6433;BME280;3249;42.690;23.260;2023-02-28T11:57:32;94837.31;;;11.79;100.00
6433;BME280;3249;42.690;23.260;2023-02-28T12:00:13;94832.84;;;11.93;100.00
6433;BME280;3249;42.690;23.260;2023-02-28T12:02:59;94813.53;;;11.09;100.00
6433;BME280;3249;42.690;23.260;2023-02-28T12:05:35;94832.00;;;10.99;100.00
6433;BME280;3249;42.690;23.260;2023-02-28T12:08:20;94816.88;;;11.16;100.00
6433;BME280;3249;42.690;23.260;2023-02-28T12:11:03;94829.72;;;11.22;100.00
6433;BME280;3249;42.690;23.260;2023-02-28T12:13:45;94828.88;;;10.91;100.00
6433;BME280;3249;42.690;23.260;2023-02-28T12:16:43;94832.81;;;11.00;100.00
6433;BME280;3249;42.690;23.260;2023-02-28T12:19:25;94823.38;;;11.25;100.00
6433;BME280;3249;42.690;23.260;2023-02-28T12:22:22;94818.72;;;11.40;100.00
6433;BME280;3249;42.690;23.260;2023-02-28T12:39:25;94812.91;;;11.51;100.00
6433;BME280;3249;42.690;23.260;2023-02-28T12:46:14;94795.13;;;11.36;100.00
6433;BME280;3249;42.690;23.260;2023-02-28T12:58:29;94807.38;;;11.47;100.00
6433;BME280;3249;42.690;23.260;2023-02-28T13:12:23;94802.41;;;11.46;100.00
6433;BME280;3249;42.690;23.260;2023-02-28T13:37:41;94791.69;;;11.49;100.00
6433;BME280;3249;42.690;23.260;2023-02-28T13:55:41;94767.47;;;11.25;100.00
6433;BME280;3249;42.690;23.260;2023-02-28T14:10:27;94763.09;;;10.88;100.00
6433;BME280;3249;42.690;23.260;2023-02-28T14:21:20;94771.63;;;11.26;100.00
6433;BME280;3249;42.690;23.260;2023-02-28T14:24:16;94759.78;;;11.12;100.00
6433;BME280;3249;42.690;23.260;2023-02-28T14:27:02;94771.16;;;11.05;100.00
6433;BME280;3249;42.690;23.260;2023-02-28T14:30:00;94777.31;;;11.04;100.00
6433;BME280;3249;42.690;23.260;2023-02-28T14:32:35;94755.31;;;10.64;100.00
6433;BME280;3249;42.690;23.260;2023-02-28T14:35:22;94758.41;;;10.72;100.00
6433;BME280;3249;42.690;23.260;2023-02-28T14:37:59;94773.03;;;10.85;100.00
6433;BME280;3249;42.690;23.260;2023-02-28T14:40:30;94763.53;;;10.85;100.00
6433;BME280;3249;42.690;23.260;2023-02-28T14:43:04;94736.38;;;10.45;100.00
6433;BME280;3249;42.690;23.260;2023-02-28T14:45:35;94770.31;;;10.67;100.00
6433;BME280;3249;42.690;23.260;2023-02-28T14:48:14;94770.94;;;10.69;100.00
6433;BME280;3249;42.690;23.260;2023-02-28T14:50:59;94772.91;;;10.67;100.00
6433;BME280;3249;42.690;23.260;2023-02-28T14:53:36;94740.75;;;10.38;100.00
6433;BME280;3249;42.690;23.260;2023-02-28T14:56:16;94719.41;;;10.25;100.00
6433;BME280;3249;42.690;23.260;2023-02-28T14:58:56;94765.69;;;10.38;100.00
6433;BME280;3249;42.690;23.260;2023-02-28T15:01:26;94778.50;;;10.57;100.00
6433;BME280;3249;42.690;23.260;2023-02-28T15:04:00;94768.47;;;10.30;100.00
6433;BME280;3249;42.690;23.260;2023-02-28T15:06:33;94769.28;;;10.24;100.00
6433;BME280;3249;42.690;23.260;2023-02-28T15:09:15;94756.03;;;10.14;100.00
6433;BME280;3249;42.690;23.260;2023-02-28T15:11:48;94758.63;;;10.01;100.00
6433;BME280;3249;42.690;23.260;2023-02-28T15:14:21;94762.19;;;10.00;100.00
6433;BME280;3249;42.690;23.260;2023-02-28T15:16:54;94764.94;;;9.85;100.00
6433;BME280;3249;42.690;23.260;2023-02-28T15:19:35;94762.59;;;9.84;100.00
6433;BME280;3249;42.690;23.260;2023-02-28T15:22:12;94759.44;;;9.75;100.00
6433;BME280;3249;42.690;23.260;2023-02-28T15:24:58;94762.19;;;9.74;100.00